Time;durP1;ratioP1;P1;durP2;ratioP2;P2;SDS_P1;SDS_P2;PMS_P1;PMS_P2;Temp;Humidity;BMP_temperature;BMP_pressure;BME280_temperature;BME280_humidity;BME280_pressure;Samples;Min_cycle;Max_cycle;Signal;HPM_P1;HPM_P2
2021/07/12 00:00:40;;;;;;;12.35;8.05;;;;;;;21.07;67.49;100135.31;1703414;82;21110;-80
2021/07/12 00:03:07;;;;;;;9.75;8.63;;;;;;;21.06;68.48;100125.55;1741867;80;21528;-81
2021/07/12 00:05:34;;;;;;;11.22;7.20;;;;;;;21.03;68.77;100135.19;1742620;82;21074;-82
2021/07/12 00:08:01;;;;;;;6.87;6.12;;;;;;;20.96;68.24;100129.97;1742230;81;21503;-82
2021/07/12 00:10:30;;;;;;;8.55;7.72;;;;;;;20.93;68.51;100131.53;1742579;81;21615;-81
2021/07/12 00:12:58;;;;;;;13.10;10.45;;;;;;;20.86;66.34;100133.84;1742410;81;21037;-82
2021/07/12 00:15:28;;;;;;;10.98;9.88;;;;;;;20.84;67.72;100134.45;1742451;81;20994;-82
2021/07/12 00:17:56;;;;;;;10.95;9.85;;;;;;;20.78;69.07;100130.95;1742364;81;21745;-82
2021/07/12 00:20:25;;;;;;;11.28;9.35;;;;;;;20.75;69.60;100133.84;1742520;81;21070;-80
2021/07/12 00:22:53;;;;;;;10.25;9.23;;;;;;;20.72;69.74;100130.93;1742427;82;21003;-83
2021/07/12 00:25:22;;;;;;;10.90;9.15;;;;;;;20.70;70.42;100131.53;1742409;81;21069;-85
2021/07/12 00:27:50;;;;;;;11.78;9.70;;;;;;;20.68;70.75;100132.17;1742493;82;21034;-81
2021/07/12 00:30:20;;;;;;;12.65;10.05;;;;;;;20.68;70.27;100135.30;1742673;82;21058;-80
2021/07/12 00:32:48;;;;;;;10.32;7.90;;;;;;;20.68;70.87;100133.51;1742609;82;21074;-80
2021/07/12 00:35:16;;;;;;;7.33;6.35;;;;;;;20.67;70.67;100129.11;1742638;82;21031;-81
2021/07/12 00:37:43;;;;;;;14.18;8.33;;;;;;;20.69;69.51;100129.84;1742652;82;21967;-79
2021/07/12 00:40:14;;;;;;;8.65;7.83;;;;;;;20.72;69.87;100133.61;1742986;82;21117;-80
2021/07/12 00:42:42;;;;;;;7.08;5.47;;;;;;;20.76;70.06;100130.70;1742700;82;21057;-80
2021/07/12 00:45:17;;;;;;;7.58;5.72;;;;;;;20.76;68.62;100122.67;1742574;82;21717;-81
2021/07/12 00:47:44;;;;;;;11.12;8.80;;;;;;;20.78;68.13;100124.75;1742625;82;21064;-81
2021/07/12 00:50:12;;;;;;;12.23;9.88;;;;;;;20.77;68.79;100117.67;1742630;82;21132;-82
2021/07/12 00:52:40;;;;;;;13.13;9.38;;;;;;;20.77;70.46;100129.72;1742217;82;22093;-79
2021/07/12 00:55:24;;;;;;;12.63;9.08;;;;;;;20.72;69.66;100124.23;1721547;82;21084;-78
2021/07/12 00:57:53;;;;;;;15.95;9.18;;;;;;;20.69;68.89;100123.16;1726317;82;21666;-79
2021/07/12 01:00:23;;;;;;;10.23;8.45;;;;;;;20.72;69.58;100118.89;1741549;81;21092;-81
2021/07/12 01:02:52;;;;;;;11.23;9.10;;;;;;;20.75;70.06;100128.49;1756664;81;21104;-79
2021/07/12 01:05:21;;;;;;;12.17;8.40;;;;;;;20.78;70.22;100116.72;1756838;81;21105;-79
2021/07/12 01:07:52;;;;;;;10.88;8.65;;;;;;;20.81;69.73;100115.13;1737734;81;21057;-77
2021/07/12 01:10:19;;;;;;;9.48;7.17;;;;;;;20.84;69.26;100118.39;1736805;82;21042;-83
2021/07/12 01:13:16;;;;;;;14.03;9.65;;;;;;;20.86;68.60;100112.92;1737105;82;21042;-81
2021/07/12 01:16:16;;;;;;;8.85;7.95;;;;;;;20.88;68.45;100123.02;1736105;82;21225;-80
2021/07/12 01:19:34;;;;;;;10.60;9.50;;;;;;;20.88;68.55;100116.33;1736173;82;21590;-79
2021/07/12 01:22:27;;;;;;;14.85;9.80;;;;;;;20.88;67.20;100119.01;1710580;82;21272;-81
2021/07/12 01:25:25;;;;;;;13.15;8.35;;;;;;;20.86;68.90;100116.94;1743011;82;21695;-81
2021/07/12 01:28:34;;;;;;;13.55;9.15;;;;;;;20.83;68.99;100119.88;1742232;82;21181;-81
2021/07/12 01:31:27;;;;;;;13.35;8.85;;;;;;;20.82;68.87;100120.83;1711750;82;21206;-80
2021/07/12 01:34:16;;;;;;;8.98;7.60;;;;;;;20.83;69.31;100121.21;1742119;82;21800;-79
2021/07/12 01:37:10;;;;;;;10.95;8.00;;;;;;;20.84;67.22;100126.91;1697940;82;21065;-80
2021/07/12 01:39:48;;;;;;;13.05;9.58;;;;;;;20.84;67.43;100118.88;1742627;82;21076;-79
2021/07/12 01:42:24;;;;;;;12.65;9.80;;;;;;;20.81;68.12;100122.66;1742350;82;21041;-77
2021/07/12 01:45:15;;;;;;;11.90;10.30;;;;;;;20.82;69.12;100120.36;1741644;82;21218;-77
2021/07/12 01:48:05;;;;;;;12.00;10.03;;;;;;;20.80;69.30;100120.09;1744108;81;21014;-77
2021/07/12 01:50:55;;;;;;;12.55;9.53;;;;;;;20.78;69.72;100120.73;1757870;81;21066;-78
2021/07/12 01:53:47;;;;;;;11.73;9.40;;;;;;;20.74;69.77;100120.95;1757961;81;21010;-80
2021/07/12 01:56:40;;;;;;;10.45;8.73;;;;;;;20.73;70.29;100124.63;1754136;81;21027;-79
2021/07/12 01:59:26;;;;;;;12.50;8.98;;;;;;;20.71;70.66;100125.23;1752344;81;21108;-78
2021/07/12 02:01:55;;;;;;;9.38;6.87;;;;;;;20.70;70.76;100128.86;1742412;82;21090;-76
2021/07/12 02:04:27;;;;;;;9.50;6.70;;;;;;;20.69;70.05;100129.84;1742381;82;21504;-77
2021/07/12 02:06:55;;;;;;;11.05;7.70;;;;;;;20.71;69.18;100131.91;1742183;82;21041;-78
2021/07/12 02:09:23;;;;;;;9.55;7.67;;;;;;;20.73;69.69;100135.33;1742438;82;21077;-78
2021/07/12 02:11:51;;;;;;;11.65;9.68;;;;;;;20.74;69.72;100134.34;1742062;81;21126;-78
2021/07/12 02:14:20;;;;;;;10.68;9.38;;;;;;;20.73;70.37;100137.16;1742618;82;21049;-76
2021/07/12 02:16:49;;;;;;;10.85;9.60;;;;;;;20.70;69.95;100136.88;1742446;82;21077;-77
2021/07/12 02:19:15;;;;;;;10.70;9.70;;;;;;;20.67;70.65;100131.78;1742350;82;21112;-76
2021/07/12 02:21:51;;;;;;;14.15;8.68;;;;;;;20.64;71.47;100129.36;1741763;82;21112;-76
2021/07/12 02:24:22;;;;;;;13.18;8.98;;;;;;;20.63;70.58;100124.13;1734048;82;21536;-77
2021/07/12 02:26:50;;;;;;;12.40;9.40;;;;;;;20.63;70.82;100116.94;1742207;82;21041;-81
2021/07/12 02:29:18;;;;;;;12.05;9.30;;;;;;;20.63;71.22;100115.61;1742599;82;21097;-81
2021/07/12 02:31:48;;;;;;;13.53;8.53;;;;;;;20.61;71.80;100110.86;1742380;82;21054;-79
2021/07/12 02:34:15;;;;;;;11.12;8.30;;;;;;;20.62;71.10;100107.72;1742341;82;21055;-82
2021/07/12 02:36:45;;;;;;;11.30;9.28;;;;;;;20.64;71.25;100106.62;1697788;82;21124;-81
2021/07/12 02:39:14;;;;;;;11.63;9.28;;;;;;;20.64;71.14;100115.14;1740955;82;21528;-82
2021/07/12 02:41:42;;;;;;;14.45;10.58;;;;;;;20.64;71.67;100110.63;1721572;82;21505;-81
2021/07/12 02:44:14;;;;;;;11.55;9.50;;;;;;;20.66;71.90;100111.37;1742404;82;21056;-79
2021/07/12 02:46:42;;;;;;;14.13;10.55;;;;;;;20.67;71.30;100103.69;1746109;82;21056;-81
2021/07/12 02:49:09;;;;;;;12.23;8.65;;;;;;;20.73;71.80;100109.06;1684583;83;21966;-78
2021/07/12 02:51:45;;;;;;;11.33;9.60;;;;;;;20.76;71.09;100102.61;1709708;83;21078;-79
2021/07/12 02:54:15;;;;;;;13.25;9.63;;;;;;;20.82;71.09;100096.73;1709916;83;21666;-80
2021/07/12 02:56:42;;;;;;;13.15;9.53;;;;;;;20.88;71.37;100091.75;1686897;83;21046;-79
2021/07/12 02:59:10;;;;;;;12.78;9.80;;;;;;;20.99;71.53;100089.55;1725004;82;21096;-79
2021/07/12 03:01:38;;;;;;;14.03;10.13;;;;;;;21.08;71.69;100086.12;1719588;82;21147;-78
2021/07/12 03:04:05;;;;;;;20.27;9.93;;;;;;;21.16;71.76;100094.86;1746722;82;21049;-79
2021/07/12 03:06:33;;;;;;;10.43;9.33;;;;;;;21.27;68.50;100101.53;1746548;82;21714;-79
2021/07/12 03:09:12;;;;;;;14.00;9.80;;;;;;;21.60;67.19;100101.56;1746402;82;21092;-78
2021/07/12 03:11:52;;;;;;;14.10;9.30;;;;;;;21.89;65.51;100106.66;1746596;82;21327;-79
2021/07/12 03:14:52;;;;;;;16.32;9.95;;;;;;;22.16;64.40;100108.83;1742874;82;21574;-79
2021/07/12 03:17:18;;;;;;;18.25;9.28;;;;;;;22.38;64.05;100115.92;1746203;82;21098;-76
2021/07/12 03:19:47;;;;;;;23.87;10.28;;;;;;;22.53;63.25;100086.04;1746362;82;21555;-78
2021/07/12 03:22:14;;;;;;;14.25;9.30;;;;;;;22.70;62.96;100098.80;1746192;82;21133;-76
2021/07/12 03:24:45;;;;;;;12.45;9.40;;;;;;;22.85;62.39;100106.52;1744371;82;21049;-77
2021/07/12 03:27:16;;;;;;;13.58;9.53;;;;;;;22.97;61.59;100102.72;1746158;82;21109;-79
2021/07/12 03:29:44;;;;;;;18.62;9.75;;;;;;;23.11;61.62;100098.83;1746010;82;21042;-78
2021/07/12 03:32:11;;;;;;;13.40;9.03;;;;;;;23.27;61.81;100113.91;1746430;82;21072;-79
2021/07/12 03:34:39;;;;;;;12.60;9.00;;;;;;;23.34;61.58;100115.55;1746337;82;21065;-79
2021/07/12 03:37:06;;;;;;;21.00;8.58;;;;;;;23.45;61.12;100107.36;1718885;82;21144;-78
2021/07/12 03:39:36;;;;;;;11.48;8.53;;;;;;;23.64;60.88;100118.61;1718587;82;21263;-77
2021/07/12 03:42:05;;;;;;;11.75;9.60;;;;;;;23.83;59.37;100116.44;1718132;83;21773;-79
2021/07/12 03:44:33;;;;;;;17.10;8.98;;;;;;;24.02;58.39;100132.58;1718087;83;21077;-79
2021/07/12 03:47:00;;;;;;;14.05;9.20;;;;;;;24.18;58.52;100129.30;1717913;82;21065;-80
2021/07/12 03:49:27;;;;;;;11.95;8.30;;;;;;;24.31;57.62;100138.39;1718314;83;21073;-83
2021/07/12 03:51:54;;;;;;;15.60;8.33;;;;;;;24.38;57.13;100134.12;1718673;83;21543;-83
2021/07/12 03:54:21;;;;;;;15.83;8.83;;;;;;;24.46;57.08;100132.91;1718518;83;21069;-84
2021/07/12 03:56:48;;;;;;;10.28;8.35;;;;;;;24.52;55.89;100126.61;1718788;83;21049;-86
2021/07/12 03:59:15;;;;;;;12.65;8.80;;;;;;;24.57;56.46;100118.45;1724064;81;21106;-84
2021/07/12 04:01:43;;;;;;;18.90;9.40;;;;;;;24.61;56.83;100116.30;1711615;83;21112;-87
2021/07/12 04:04:10;;;;;;;15.03;8.93;;;;;;;24.65;57.58;100115.86;1712877;83;21550;-86
2021/07/12 04:06:38;;;;;;;18.30;9.53;;;;;;;24.66;57.67;100109.97;1712642;83;21004;-87
2021/07/12 04:09:06;;;;;;;15.53;8.70;;;;;;;24.64;58.16;100108.79;1711734;83;21060;-86
2021/07/12 04:11:34;;;;;;;17.35;8.95;;;;;;;24.66;58.81;100105.93;1737067;82;21085;-84
2021/07/12 04:14:01;;;;;;;15.05;9.10;;;;;;;24.66;59.10;100112.66;1739528;82;21003;-87
2021/07/12 04:16:28;;;;;;;11.80;9.38;;;;;;;24.60;59.17;100118.66;1732800;82;21065;-86
2021/07/12 04:18:56;;;;;;;13.18;9.03;;;;;;;24.53;59.28;100125.63;1740165;82;21093;-86
2021/07/12 04:21:23;;;;;;;10.18;8.63;;;;;;;24.48;59.32;100126.91;1731671;82;20998;-86
2021/07/12 04:23:52;;;;;;;10.78;8.05;;;;;;;24.39;58.81;100123.72;1733794;82;21070;-84
2021/07/12 04:26:18;;;;;;;15.23;9.55;;;;;;;24.37;58.53;100120.33;1736696;82;21564;-83
2021/07/12 04:28:45;;;;;;;12.53;8.83;;;;;;;24.35;59.03;100118.27;1730996;82;21571;-84
2021/07/12 04:31:14;;;;;;;11.12;8.88;;;;;;;24.33;58.99;100113.53;1737745;81;21053;-86
2021/07/12 04:33:42;;;;;;;10.55;8.13;;;;;;;24.34;58.87;100111.67;1735426;82;21208;-79
2021/07/12 04:36:10;;;;;;;13.68;8.90;;;;;;;24.35;58.58;100116.08;1731017;82;21019;-77
2021/07/12 04:38:40;;;;;;;10.98;9.00;;;;;;;24.35;59.28;100108.85;1733873;82;21097;-77
2021/07/12 04:41:07;;;;;;;17.25;9.13;;;;;;;24.36;59.50;100111.87;1735396;82;21182;-76
2021/07/12 04:43:34;;;;;;;10.85;9.03;;;;;;;24.37;59.43;100110.91;1736167;82;21572;-76
2021/07/12 04:46:01;;;;;;;15.32;8.75;;;;;;;24.41;59.38;100115.01;1738937;81;21102;-80
2021/07/12 04:48:29;;;;;;;13.00;9.25;;;;;;;24.42;59.25;100114.50;1752428;81;21039;-78
2021/07/12 04:50:59;;;;;;;11.45;8.08;;;;;;;24.44;59.13;100117.39;1745054;80;21040;-77
2021/07/12 04:53:25;;;;;;;17.90;8.93;;;;;;;24.48;58.42;100109.92;1748940;80;21049;-78
2021/07/12 04:55:53;;;;;;;13.22;9.00;;;;;;;24.58;58.52;100107.19;1675683;85;21110;-79
2021/07/12 05:00:51;;;;;;;14.25;8.25;;;;;;;24.95;57.42;100095.02;1872395;75;22487;-77
2021/07/12 05:03:19;;;;;;;12.98;8.63;;;;;;;25.11;57.47;100099.25;1845153;75;21074;-77
2021/07/12 05:05:45;;;;;;;13.25;8.63;;;;;;;25.36;56.50;100097.36;1774746;79;21139;-78
2021/07/12 05:08:13;;;;;;;15.30;9.00;;;;;;;25.61;55.74;100103.33;1773321;79;20967;-79
2021/07/12 05:10:41;;;;;;;9.83;8.35;;;;;;;25.81;55.21;100101.29;1780209;80;21104;-81
2021/07/12 05:13:08;;;;;;;18.10;8.05;;;;;;;25.99;54.41;100105.34;1766334;78;21602;-79
2021/07/12 05:15:37;;;;;;;18.75;8.30;;;;;;;26.14;53.85;100105.13;1770012;79;21046;-77
2021/07/12 05:18:04;;;;;;;14.68;7.95;;;;;;;26.29;53.94;100105.89;1772646;79;21543;-76
2021/07/12 05:20:32;;;;;;;11.10;7.85;;;;;;;26.51;52.90;100099.95;1754855;79;21018;-78
2021/07/12 05:22:59;;;;;;;18.30;9.13;;;;;;;26.74;52.63;100098.92;1758186;79;21048;-78
2021/07/12 05:25:27;;;;;;;16.62;8.90;;;;;;;26.95;52.82;100116.05;1765767;79;21116;-86
2021/07/12 05:27:54;;;;;;;16.67;9.38;;;;;;;27.08;52.29;100113.38;1761216;79;22003;-79
2021/07/12 05:30:21;;;;;;;15.95;8.95;;;;;;;27.16;52.16;100118.31;1767694;79;21109;-84
2021/07/12 05:32:48;;;;;;;14.07;8.58;;;;;;;27.06;51.96;100116.27;1787120;79;21082;-85
2021/07/12 05:35:15;;;;;;;16.23;9.23;;;;;;;26.96;52.66;100119.12;1791990;78;21077;-84
2021/07/12 05:37:42;;;;;;;13.95;9.13;;;;;;;26.89;53.07;100122.09;1788816;79;21006;-83
2021/07/12 05:40:10;;;;;;;15.70;8.53;;;;;;;26.80;53.54;100123.08;1759224;80;21037;-84
2021/07/12 05:42:36;;;;;;;18.12;9.50;;;;;;;26.70;54.12;100124.55;1761204;79;21509;-85
2021/07/12 05:45:04;;;;;;;15.60;9.18;;;;;;;26.68;54.35;100129.78;1783933;79;21090;-83
2021/07/12 05:47:31;;;;;;;18.60;10.20;;;;;;;26.69;54.51;100136.89;1774656;80;21054;-86
2021/07/12 05:49:58;;;;;;;10.88;9.48;;;;;;;26.72;54.55;100132.51;1766459;80;21664;-86
2021/07/12 05:52:25;;;;;;;15.98;10.00;;;;;;;26.73;54.85;100136.89;1774186;80;21009;-85
2021/07/12 05:54:52;;;;;;;13.48;9.73;;;;;;;26.74;55.08;100138.60;1810295;77;21130;-86
2021/07/12 05:57:19;;;;;;;19.10;9.68;;;;;;;26.78;55.04;100137.27;1837618;77;21036;-87
2021/07/12 05:59:46;;;;;;;11.33;8.68;;;;;;;26.85;54.78;100136.97;1781828;80;21579;-87
2021/07/12 06:02:13;;;;;;;17.32;9.88;;;;;;;26.91;54.18;100139.00;1768732;81;21071;-86
2021/07/12 06:04:40;;;;;;;18.27;10.00;;;;;;;26.97;53.85;100149.17;1776298;79;21148;-79
2021/07/12 06:07:07;;;;;;;15.25;9.75;;;;;;;27.04;54.10;100145.31;1743482;81;21115;-78
2021/07/12 06:09:34;;;;;;;16.48;10.32;;;;;;;27.00;53.89;100152.88;1737242;82;21596;-78
2021/07/12 06:12:01;;;;;;;21.48;10.15;;;;;;;26.91;54.49;100155.21;1714913;81;21074;-77
2021/07/12 06:14:28;;;;;;;19.65;11.00;;;;;;;26.82;54.68;100162.94;1778589;80;21123;-77
2021/07/12 06:16:55;;;;;;;16.77;10.23;;;;;;;26.79;55.21;100154.66;1756331;81;21626;-78
2021/07/12 06:19:23;;;;;;;17.95;10.45;;;;;;;26.83;55.22;100152.48;1762210;80;21081;-79
2021/07/12 06:21:51;;;;;;;15.40;10.58;;;;;;;26.82;55.75;100153.99;1722407;82;21553;-78
2021/07/12 06:24:18;;;;;;;16.50;11.43;;;;;;;26.72;55.98;100152.77;1769095;80;21602;-79
2021/07/12 06:26:45;;;;;;;21.20;11.12;;;;;;;26.63;56.43;100157.78;1719646;82;21052;-79
2021/07/12 06:29:13;;;;;;;19.25;11.53;;;;;;;26.53;57.35;100170.86;1758082;80;21026;-78
2021/07/12 06:31:40;;;;;;;23.50;12.07;;;;;;;26.48;57.62;100163.75;1743377;81;21332;-79
2021/07/12 06:34:07;;;;;;;19.35;12.20;;;;;;;26.46;58.04;100167.10;1735939;81;21015;-78
2021/07/12 06:36:34;;;;;;;20.52;12.93;;;;;;;26.41;58.20;100180.23;1736799;82;21682;-78
2021/07/12 06:39:01;;;;;;;20.12;12.55;;;;;;;26.33;58.60;100182.87;1739299;81;21075;-77
2021/07/12 06:41:28;;;;;;;28.32;11.85;;;;;;;26.24;59.15;100182.46;1745316;81;21625;-77
2021/07/12 06:43:56;;;;;;;16.45;11.45;;;;;;;26.06;59.87;100178.42;1755026;80;21896;-77
2021/07/12 06:46:25;;;;;;;22.67;11.97;;;;;;;25.96;60.25;100181.22;1737458;81;21011;-77
2021/07/12 06:48:52;;;;;;;18.00;12.45;;;;;;;25.92;59.53;100174.43;1761926;81;21052;-77
2021/07/12 06:51:19;;;;;;;20.25;11.40;;;;;;;25.96;59.98;100173.13;1770625;80;21100;-78
2021/07/12 06:53:46;;;;;;;20.48;12.15;;;;;;;25.98;59.99;100169.77;1759461;81;21050;-78
2021/07/12 06:56:13;;;;;;;18.07;11.95;;;;;;;26.00;60.70;100169.12;1763645;81;21129;-77
2021/07/12 06:58:42;;;;;;;20.00;11.28;;;;;;;25.94;59.63;100165.17;1774284;79;21040;-78
2021/07/12 07:01:09;;;;;;;20.55;12.43;;;;;;;25.89;61.15;100163.95;1788276;77;21006;-77
2021/07/12 07:03:37;;;;;;;23.65;12.80;;;;;;;25.80;60.72;100162.16;1775914;78;21088;-77
2021/07/12 07:06:05;;;;;;;21.15;12.33;;;;;;;25.75;62.34;100162.11;1780293;79;21587;-76
2021/07/12 07:08:36;;;;;;;20.37;12.58;;;;;;;25.74;62.41;100161.78;1781722;79;21123;-75
2021/07/12 07:11:04;;;;;;;24.75;12.43;;;;;;;25.69;62.41;100154.63;1785270;79;21022;-78
2021/07/12 07:13:32;;;;;;;29.98;13.45;;;;;;;25.69;62.96;100147.88;1797054;79;21072;-78
2021/07/12 07:16:00;;;;;;;23.20;13.13;;;;;;;25.69;63.26;100155.98;1786197;79;21058;-79
2021/07/12 07:18:29;;;;;;;24.00;12.95;;;;;;;25.66;63.19;100161.69;1791073;79;21041;-78
2021/07/12 07:20:57;;;;;;;24.02;12.85;;;;;;;25.61;63.71;100151.03;1767084;79;21968;-76
2021/07/12 07:23:24;;;;;;;30.43;13.85;;;;;;;25.59;63.52;100147.12;1781768;79;21077;-77
2021/07/12 07:25:52;;;;;;;22.32;12.50;;;;;;;25.64;63.71;100142.11;1780880;78;21010;-84
2021/07/12 07:28:19;;;;;;;18.17;11.48;;;;;;;25.72;63.27;100147.59;1777889;80;21051;-81
2021/07/12 07:30:46;;;;;;;19.75;12.33;;;;;;;25.74;62.20;100148.77;1779888;79;21030;-85
2021/07/12 07:33:12;;;;;;;22.40;12.70;;;;;;;25.82;63.59;100152.06;1785079;79;21160;-85
2021/07/12 07:35:40;;;;;;;20.15;12.55;;;;;;;25.93;62.68;100149.16;1790171;79;21469;-83
2021/07/12 07:38:06;;;;;;;21.50;12.70;;;;;;;26.04;61.76;100150.23;1789828;79;21084;-85
2021/07/12 07:40:33;;;;;;;17.05;12.23;;;;;;;26.18;60.96;100143.94;1784766;79;21117;-86
2021/07/12 07:43:01;;;;;;;20.80;12.13;;;;;;;26.37;60.85;100151.86;1778190;79;21080;-86
2021/07/12 07:45:28;;;;;;;18.52;11.70;;;;;;;26.53;60.37;100154.66;1786032;79;21183;-85
2021/07/12 07:47:56;;;;;;;17.57;12.63;;;;;;;26.72;59.59;100139.27;1793511;78;21064;-85
2021/07/12 07:50:23;;;;;;;18.60;11.35;;;;;;;27.00;58.62;100139.38;1790678;79;21572;-78
2021/07/12 07:52:51;;;;;;;18.50;12.05;;;;;;;27.28;58.60;100136.97;1787108;79;21113;-78
2021/07/12 07:55:18;;;;;;;18.60;10.93;;;;;;;27.61;57.12;100138.73;1787774;79;21123;-78
2021/07/12 07:57:45;;;;;;;14.35;10.68;;;;;;;27.87;55.72;100139.64;1792359;80;21541;-78
2021/07/12 08:00:17;;;;;;;15.15;10.63;;;;;;;28.16;54.97;100129.14;1791335;79;20935;-82
2021/07/12 08:02:44;;;;;;;16.00;10.35;;;;;;;28.65;52.93;100137.70;1786047;80;21060;-83
2021/07/12 08:05:11;;;;;;;20.62;10.60;;;;;;;29.06;52.47;100135.67;1787548;80;21041;-82
2021/07/12 08:07:38;;;;;;;20.43;9.98;;;;;;;29.65;50.61;100123.47;1787516;80;21108;-84
2021/07/12 08:10:07;;;;;;;18.98;9.93;;;;;;;30.27;50.10;100116.53;1787165;80;21538;-84
2021/07/12 08:12:34;;;;;;;19.65;10.13;;;;;;;30.96;47.91;100107.28;1784516;80;22150;-83
2021/07/12 08:15:01;;;;;;;14.70;9.88;;;;;;;31.94;44.52;100119.44;1781094;80;21088;-82
2021/07/12 08:17:28;;;;;;;11.85;8.93;;;;;;;31.94;44.52;100119.44;1788071;80;21025;-83
2021/07/12 08:19:55;;;;;;;14.50;9.00;;;;;;;32.11;44.07;100116.45;1788209;80;21084;-84
2021/07/12 08:22:24;;;;;;;14.28;9.13;;;;;;;32.21;42.78;100124.28;1784114;79;20970;-79
2021/07/12 08:24:51;;;;;;;8.60;7.65;;;;;;;32.30;42.31;100122.59;1773682;80;21010;-78
2021/07/12 08:27:18;;;;;;;11.18;7.80;;;;;;;32.59;42.53;100122.05;1784367;80;21092;-79
2021/07/12 08:29:45;;;;;;;10.05;8.05;;;;;;;32.88;41.24;100119.59;1789039;79;21068;-78
2021/07/12 08:32:12;;;;;;;10.20;7.60;;;;;;;33.01;40.30;100116.06;1786629;80;21561;-80
2021/07/12 08:34:42;;;;;;;11.38;7.97;;;;;;;33.10;39.91;100108.05;1787326;80;21152;-79
2021/07/12 08:37:10;;;;;;;10.20;8.20;;;;;;;33.41;41.11;100116.24;1788220;80;21073;-80
2021/07/12 08:39:37;;;;;;;12.40;7.78;;;;;;;33.67;39.56;100107.27;1785874;80;21033;-80
2021/07/12 08:42:04;;;;;;;10.55;7.55;;;;;;;33.73;39.21;100103.72;1785742;80;21156;-79
2021/07/12 08:44:32;;;;;;;10.78;7.87;;;;;;;33.83;39.44;100102.77;1787532;80;21056;-80
2021/07/12 08:46:59;;;;;;;9.33;6.95;;;;;;;34.11;38.22;100100.91;1783709;79;21179;-78
2021/07/12 08:49:26;;;;;;;13.45;7.33;;;;;;;34.06;36.58;100108.34;1787886;80;21060;-81
2021/07/12 08:51:53;;;;;;;8.20;6.90;;;;;;;33.93;37.56;100107.80;1778878;79;21062;-78
2021/07/12 08:54:20;;;;;;;15.53;7.30;;;;;;;33.88;36.70;100106.77;1773633;79;21088;-79
2021/07/12 08:56:47;;;;;;;10.58;7.08;;;;;;;33.70;37.28;100103.28;1782796;80;21072;-80
2021/07/12 08:59:30;;;;;;;8.48;6.83;;;;;;;33.48;37.03;100103.97;1792336;79;21969;-79
2021/07/12 09:02:12;;;;;;;13.13;6.55;;;;;;;33.19;38.11;100104.09;1755629;80;21025;-80
2021/07/12 09:04:43;;;;;;;7.65;6.70;;;;;;;32.94;38.52;100097.47;1778418;80;21032;-81
2021/07/12 09:07:13;;;;;;;9.75;7.47;;;;;;;32.73;38.10;100100.63;1781431;79;21705;-79
2021/07/12 09:09:40;;;;;;;11.15;7.60;;;;;;;32.81;38.97;100092.29;1740380;81;21537;-79
2021/07/12 09:12:17;;;;;;;12.13;6.65;;;;;;;32.89;39.78;100108.98;1779812;79;21092;-78
2021/07/12 09:15:10;;;;;;;8.13;6.78;;;;;;;33.02;39.03;100116.40;1765210;80;21119;-74
2021/07/12 09:17:40;;;;;;;10.82;6.92;;;;;;;33.16;38.89;100111.34;1786879;80;21095;-76
2021/07/12 09:20:09;;;;;;;7.78;6.90;;;;;;;33.00;38.69;100119.84;1788003;80;21037;-78
2021/07/12 09:22:42;;;;;;;8.98;6.72;;;;;;;32.63;39.42;100119.25;1787678;80;21037;-78
2021/07/12 09:25:11;;;;;;;13.78;7.62;;;;;;;32.52;39.64;100126.62;1770056;79;21565;-77
2021/07/12 09:27:41;;;;;;;11.53;7.12;;;;;;;32.50;39.69;100139.05;1759283;80;21064;-78
2021/07/12 09:30:11;;;;;;;;;;;;;;;32.30;40.60;100136.70;1791661;80;21571;-80
2021/07/12 09:32:43;;;;;;;9.50;7.03;;;;;;;32.31;40.43;100146.59;1784645;80;20181;-77
2021/07/12 09:35:15;;;;;;;13.53;6.67;;;;;;;32.19;39.05;100143.56;1791366;80;21144;-77
2021/07/12 09:37:48;;;;;;;10.82;6.15;;;;;;;32.17;39.60;100138.30;1805287;79;21117;-78
2021/07/12 09:40:17;;;;;;;6.75;6.08;;;;;;;32.14;39.07;100143.29;1791066;80;21021;-76
2021/07/12 09:42:50;;;;;;;9.35;5.85;;;;;;;31.94;39.02;100139.03;1786039;79;21013;-78
2021/07/12 09:45:19;;;;;;;10.63;7.05;;;;;;;31.82;39.67;100140.08;1766995;81;21045;-77
2021/07/12 09:47:48;;;;;;;13.10;6.87;;;;;;;31.54;39.94;100153.59;1769745;81;21040;-79
2021/07/12 09:50:23;;;;;;;10.58;7.58;;;;;;;31.10;40.43;100154.00;1769914;81;21088;-77
2021/07/12 09:53:04;;;;;;;7.80;7.00;;;;;;;30.66;41.90;100157.56;1770181;81;21678;-77
2021/07/12 09:55:34;;;;;;;12.95;7.10;;;;;;;30.36;42.77;100146.34;1769365;80;21161;-78
2021/07/12 09:58:12;;;;;;;11.22;6.72;;;;;;;30.15;42.87;100144.31;1754419;81;21088;-78
2021/07/12 10:00:49;;;;;;;13.70;6.95;;;;;;;30.03;43.31;100135.77;1754543;80;21044;-80
2021/07/12 10:03:17;;;;;;;14.55;7.50;;;;;;;29.95;44.04;100142.61;1774763;79;21976;-77
2021/07/12 10:05:53;;;;;;;17.05;7.58;;;;;;;29.55;45.83;100148.66;1798498;79;21061;-79
2021/07/12 10:08:22;;;;;;;16.17;7.97;;;;;;;29.37;46.55;100149.77;1775246;79;21105;-78
2021/07/12 10:10:57;;;;;;;14.30;8.00;;;;;;;29.37;46.55;100149.77;1772612;80;21122;-77
2021/07/12 10:13:25;;;;;;;16.85;7.58;;;;;;;29.27;46.78;100150.52;1808110;79;21050;-77
2021/07/12 10:15:52;;;;;;;10.98;7.95;;;;;;;29.23;46.61;100158.67;1775817;79;21514;-76
2021/07/12 10:18:19;;;;;;;22.17;16.52;;;;;;;29.14;46.70;100159.73;1778550;79;21041;-78
2021/07/12 10:20:46;;;;;;;45.28;34.05;;;;;;;29.04;47.09;100160.76;1770510;80;21066;-78
2021/07/12 10:23:13;;;;;;;107.12;78.75;;;;;;;28.93;47.37;100170.62;1782314;78;21143;-78
2021/07/12 10:25:44;;;;;;;55.20;39.90;;;;;;;28.84;47.43;100170.32;1719125;80;21030;-77
2021/07/12 10:28:12;;;;;;;33.05;13.38;;;;;;;28.75;48.37;100171.36;1756115;79;21464;-76
2021/07/12 10:30:47;;;;;;;29.52;11.63;;;;;;;28.63;50.03;100167.66;1727752;81;21094;-80
2021/07/12 10:33:17;;;;;;;37.00;16.60;;;;;;;28.54;51.24;100169.22;1769298;79;21619;-80
2021/07/12 10:35:53;;;;;;;22.40;10.85;;;;;;;28.36;53.26;100161.25;1810189;78;20989;-81
2021/07/12 10:38:29;;;;;;;23.52;9.98;;;;;;;28.18;54.77;100156.89;1769832;79;21069;-81
2021/07/12 10:40:59;;;;;;;12.68;8.90;;;;;;;28.06;56.54;100153.33;1733262;80;21132;-74
2021/07/12 10:43:46;;;;;;;9.78;8.78;;;;;;;27.92;57.15;100152.14;1794379;79;21077;-75
2021/07/12 10:46:30;;;;;;;12.23;9.23;;;;;;;27.77;58.93;100140.62;1773878;80;21084;-75
2021/07/12 10:49:05;;;;;;;11.25;8.78;;;;;;;27.63;60.75;100143.98;1782877;79;21506;-75
2021/07/12 10:51:38;;;;;;;11.90;9.18;;;;;;;27.53;61.41;100148.69;1776863;80;21109;-78
2021/07/12 10:54:12;;;;;;;23.42;9.75;;;;;;;27.38;61.88;100138.52;1777491;79;21125;-77
2021/07/12 10:56:58;;;;;;;18.12;13.70;;;;;;;27.26;63.14;100138.98;1771653;80;21119;-78
2021/07/12 10:59:34;;;;;;;15.13;9.95;;;;;;;27.13;64.53;100146.20;1781823;80;21084;-78
2021/07/12 11:02:17;;;;;;;12.43;9.98;;;;;;;26.99;64.86;100143.09;1787903;78;21091;-79
2021/07/12 11:04:55;;;;;;;13.93;9.40;;;;;;;26.86;64.83;100137.30;1764341;81;21069;-77
2021/07/12 11:07:41;;;;;;;25.82;18.50;;;;;;;26.76;65.63;100127.97;1754668;81;21076;-78
2021/07/12 11:10:28;;;;;;;45.98;34.55;;;;;;;26.67;67.46;100116.78;1784141;80;21523;-77
2021/07/12 11:13:01;;;;;;;53.35;42.53;;;;;;;26.56;66.69;100119.25;1787039;80;22348;-77
2021/07/12 11:15:36;;;;;;;18.02;12.63;;;;;;;26.45;64.15;100112.73;1778667;80;21069;-76
2021/07/12 11:18:25;;;;;;;14.75;11.03;;;;;;;26.38;67.63;100107.64;1769795;80;21041;-77
2021/07/12 11:21:05;;;;;;;13.75;10.68;;;;;;;26.30;68.85;100096.81;1777788;80;21148;-77
2021/07/12 11:23:47;;;;;;;14.13;10.48;;;;;;;26.18;72.21;100096.70;1775253;80;21526;-76
2021/07/12 11:26:29;;;;;;;12.85;10.80;;;;;;;26.04;72.37;100094.08;1779835;80;21088;-78
2021/07/12 11:29:00;;;;;;;18.67;13.68;;;;;;;25.97;72.58;100087.12;1778462;80;21164;-76
2021/07/12 11:31:52;;;;;;;20.65;15.48;;;;;;;25.88;71.21;100080.84;1771326;80;21060;-76
2021/07/12 11:34:28;;;;;;;13.50;10.32;;;;;;;25.86;72.06;100072.50;1764488;80;21798;-77
2021/07/12 11:37:15;;;;;;;15.43;11.50;;;;;;;25.85;73.05;100074.86;1761510;80;21308;-77